Time;durP1;ratioP1;P1;durP2;ratioP2;P2;SDS_P1;SDS_P2;PMS_P1;PMS_P2;Temp;Humidity;BMP_temperature;BMP_pressure;BME280_temperature;BME280_humidity;BME280_pressure;Samples;Min_cycle;Max_cycle;Signal;HPM_P1;HPM_P2
2022/03/03 00:01:57;;;;;;;20.75;11.27;;;3.10;45.90;;;;;;4944773;28;20032;-71
2022/03/03 00:04:23;;;;;;;27.75;12.65;;;3.10;45.90;;;;;;4962810;28;20058;-73
2022/03/03 00:06:49;;;;;;;22.05;12.10;;;3.00;45.80;;;;;;4962831;28;20038;-71
2022/03/03 00:09:14;;;;;;;26.67;12.73;;;3.00;46.00;;;;;;4947987;28;20027;-71
2022/03/03 00:11:40;;;;;;;22.80;12.65;;;3.00;46.20;;;;;;4943424;28;20102;-72
2022/03/03 00:14:06;;;;;;;21.45;11.45;;;3.00;46.40;;;;;;4945467;28;20028;-71
2022/03/03 00:16:32;;;;;;;23.27;12.63;;;3.00;46.30;;;;;;4945110;28;20041;-72
2022/03/03 00:18:59;;;;;;;22.48;12.02;;;3.00;46.30;;;;;;4941075;29;20031;-71
2022/03/03 00:21:25;;;;;;;30.15;12.32;;;2.90;46.20;;;;;;4941624;28;20031;-71
2022/03/03 00:23:51;;;;;;;20.63;11.88;;;2.90;46.40;;;;;;4938921;28;20042;-72
2022/03/03 00:26:16;;;;;;;29.60;11.82;;;2.90;46.60;;;;;;4956702;28;20470;-72
2022/03/03 00:28:43;;;;;;;22.25;11.15;;;2.90;46.50;;;;;;4941589;29;20083;-71
2022/03/03 00:31:09;;;;;;;25.20;13.43;;;2.80;46.50;;;;;;4945446;28;20037;-72
2022/03/03 00:33:34;;;;;;;22.95;11.82;;;2.80;46.60;;;;;;4947652;28;20027;-72
2022/03/03 00:36:00;;;;;;;21.65;11.77;;;2.80;46.50;;;;;;4947837;28;20536;-75
2022/03/03 00:38:27;;;;;;;22.15;11.82;;;2.80;46.50;;;;;;4948858;28;20424;-71
2022/03/03 00:40:52;;;;;;;22.02;12.25;;;2.80;46.50;;;;;;4947593;28;20032;-73
2022/03/03 00:43:19;;;;;;;23.42;12.73;;;2.80;46.50;;;;;;4947766;28;20110;-74
2022/03/03 00:45:45;;;;;;;25.67;13.30;;;2.80;46.70;;;;;;4946423;28;20024;-73
2022/03/03 00:48:11;;;;;;;24.23;12.10;;;2.70;47.30;;;;;;4947046;28;20071;-72
2022/03/03 00:50:37;;;;;;;23.98;11.40;;;2.70;46.70;;;;;;4961826;28;20477;-73
2022/03/03 00:53:03;;;;;;;23.70;11.32;;;2.70;46.70;;;;;;4946923;28;20054;-74
2022/03/03 00:55:29;;;;;;;30.40;12.98;;;2.70;46.60;;;;;;4956683;28;20390;-72
2022/03/03 00:57:55;;;;;;;22.58;11.43;;;2.70;46.70;;;;;;4947877;28;20155;-71
2022/03/03 01:00:21;;;;;;;22.02;11.90;;;2.70;47.00;;;;;;4946968;28;20490;-72
2022/03/03 01:02:49;;;;;;;32.53;12.85;;;2.60;47.10;;;;;;4955605;28;20070;-71
2022/03/03 01:05:15;;;;;;;25.88;12.57;;;2.60;47.10;;;;;;4942747;29;20486;-74
2022/03/03 01:07:41;;;;;;;24.73;12.48;;;2.60;47.20;;;;;;4943186;28;20035;-71
2022/03/03 01:10:09;;;;;;;25.50;11.77;;;2.60;47.20;;;;;;4940814;28;20090;-71
2022/03/03 01:12:35;;;;;;;22.20;11.23;;;2.60;47.10;;;;;;4941356;28;20059;-69
2022/03/03 01:15:02;;;;;;;19.88;11.38;;;2.60;47.10;;;;;;4939958;28;20032;-70
2022/03/03 01:17:28;;;;;;;26.17;13.35;;;2.50;47.00;;;;;;4940354;28;20034;-70
2022/03/03 01:19:54;;;;;;;24.02;12.90;;;2.50;47.10;;;;;;4941694;28;20038;-70
2022/03/03 01:22:20;;;;;;;23.42;11.98;;;2.50;47.20;;;;;;4943034;28;20031;-74
2022/03/03 01:24:45;;;;;;;22.35;12.18;;;2.50;47.20;;;;;;4947971;28;20047;-75
2022/03/03 01:27:13;;;;;;;22.38;11.30;;;2.50;47.40;;;;;;4964556;28;20449;-71
2022/03/03 01:29:39;;;;;;;23.30;12.07;;;2.50;47.40;;;;;;4952531;28;20412;-73
2022/03/03 01:32:06;;;;;;;26.33;13.00;;;2.50;47.50;;;;;;4953053;28;20024;-72
2022/03/03 01:34:33;;;;;;;22.92;11.85;;;2.40;47.50;;;;;;4952831;28;20027;-72
2022/03/03 01:36:59;;;;;;;28.65;13.60;;;2.40;47.60;;;;;;4948367;28;20030;-73
2022/03/03 01:39:24;;;;;;;23.38;12.90;;;2.40;47.70;;;;;;4942919;28;20486;-75
2022/03/03 01:41:51;;;;;;;22.30;11.75;;;2.40;47.80;;;;;;4961650;28;20082;-72
2022/03/03 01:44:17;;;;;;;24.23;12.25;;;2.40;47.70;;;;;;4958376;28;20370;-72
2022/03/03 01:46:53;;;;;;;31.90;13.75;;;2.40;47.60;;;;;;4943833;28;20070;-72
2022/03/03 01:49:19;;;;;;;23.88;12.48;;;2.30;47.80;;;;;;4943552;28;20031;-71
2022/03/03 01:51:46;;;;;;;26.98;13.65;;;2.30;47.80;;;;;;4942556;28;20118;-72
2022/03/03 01:54:12;;;;;;;28.95;13.80;;;2.30;47.90;;;;;;4940416;29;20043;-72
2022/03/03 01:56:41;;;;;;;25.48;11.77;;;2.30;47.90;;;;;;4941043;29;20023;-71
2022/03/03 01:59:07;;;;;;;26.83;12.43;;;2.30;48.00;;;;;;4942199;28;20027;-71
2022/03/03 02:01:36;;;;;;;23.00;12.13;;;2.30;48.20;;;;;;4946282;28;20023;-74
2022/03/03 02:04:06;;;;;;;36.15;14.05;;;2.30;48.20;;;;;;4959308;28;20050;-74
2022/03/03 02:06:32;;;;;;;20.60;11.73;;;2.30;48.30;;;;;;4943632;29;20031;-74
2022/03/03 02:08:58;;;;;;;21.73;11.13;;;2.30;48.20;;;;;;4945450;28;20019;-73
2022/03/03 02:11:24;;;;;;;22.35;11.65;;;2.20;48.20;;;;;;4943624;29;20397;-74
2022/03/03 02:13:50;;;;;;;27.60;12.88;;;2.20;48.30;;;;;;4944335;28;20117;-73
2022/03/03 02:16:16;;;;;;;30.08;13.10;;;2.20;48.40;;;;;;4960262;28;20373;-74
2022/03/03 02:18:43;;;;;;;23.95;12.73;;;2.20;48.50;;;;;;4942644;28;20036;-71
2022/03/03 02:21:15;;;;;;;32.35;15.75;;;2.20;48.60;;;;;;4956069;28;20031;-72
2022/03/03 02:23:41;;;;;;;27.08;14.10;;;2.20;48.80;;;;;;4946284;28;20035;-71
2022/03/03 02:26:11;;;;;;;28.50;14.63;;;2.10;48.70;;;;;;4948042;28;20027;-71
2022/03/03 02:28:39;;;;;;;27.05;12.77;;;2.10;48.80;;;;;;4950234;28;20016;-71
2022/03/03 02:31:05;;;;;;;22.30;12.23;;;2.10;48.70;;;;;;4950153;28;20024;-72
2022/03/03 02:33:31;;;;;;;20.67;11.40;;;2.10;48.60;;;;;;4947486;28;20029;-70
2022/03/03 02:36:17;;;;;;;28.35;13.35;;;2.10;48.60;;;;;;4950467;28;20465;-74
2022/03/03 02:38:44;;;;;;;29.05;13.60;;;2.10;48.80;;;;;;4948035;28;20031;-74
2022/03/03 02:41:10;;;;;;;27.92;14.35;;;2.10;48.80;;;;;;4973031;28;20038;-72
2022/03/03 02:43:35;;;;;;;31.35;14.00;;;2.10;48.90;;;;;;4958004;28;20365;-72
2022/03/03 02:46:02;;;;;;;27.08;12.38;;;2.00;48.80;;;;;;4972374;28;20433;-73
2022/03/03 02:48:28;;;;;;;26.73;12.65;;;2.00;48.80;;;;;;4957103;28;20114;-75
2022/03/03 02:50:54;;;;;;;23.55;11.93;;;2.00;48.80;;;;;;4972789;28;20099;-74
2022/03/03 02:53:19;;;;;;;42.92;13.38;;;2.00;48.80;;;;;;4957753;28;20037;-73
2022/03/03 02:55:45;;;;;;;29.23;14.70;;;2.00;48.90;;;;;;4956995;28;20031;-73
2022/03/03 02:58:12;;;;;;;27.45;13.40;;;2.00;49.10;;;;;;4957377;28;20401;-73
2022/03/03 03:00:43;;;;;;;26.85;13.55;;;2.00;49.20;;;;;;4972403;28;20047;-74
2022/03/03 03:03:09;;;;;;;27.00;13.95;;;2.00;49.20;;;;;;4956719;28;20114;-72
2022/03/03 03:05:36;;;;;;;22.98;11.93;;;2.00;49.20;;;;;;4957544;28;20027;-75
2022/03/03 03:08:02;;;;;;;24.27;12.73;;;2.00;49.20;;;;;;4956358;28;20114;-74
2022/03/03 03:10:28;;;;;;;29.13;13.27;;;2.00;49.30;;;;;;4956870;28;20102;-72
2022/03/03 03:12:53;;;;;;;26.73;13.13;;;2.00;49.30;;;;;;4957539;28;20110;-75
2022/03/03 03:15:19;;;;;;;28.67;13.25;;;1.90;49.40;;;;;;4957529;28;20437;-74
2022/03/03 03:17:45;;;;;;;27.58;13.15;;;1.90;49.30;;;;;;4971984;28;20035;-74
2022/03/03 03:20:12;;;;;;;23.33;12.15;;;1.90;49.30;;;;;;4956871;28;20031;-72
2022/03/03 03:22:38;;;;;;;26.40;13.23;;;1.90;49.30;;;;;;4955678;28;20111;-73
2022/03/03 03:25:07;;;;;;;31.85;14.90;;;1.90;49.40;;;;;;4957346;28;20536;-71
2022/03/03 03:27:33;;;;;;;29.27;13.32;;;1.90;49.50;;;;;;4972103;28;20027;-75
2022/03/03 03:30:00;;;;;;;27.55;14.02;;;1.90;49.50;;;;;;4956705;28;20027;-72
2022/03/03 03:32:25;;;;;;;29.25;15.18;;;1.90;49.70;;;;;;4956927;28;20094;-71
2022/03/03 03:34:51;;;;;;;28.60;13.80;;;1.90;49.70;;;;;;4957237;28;20054;-73
2022/03/03 03:37:17;;;;;;;34.00;16.55;;;1.90;49.70;;;;;;4956362;28;20540;-73
2022/03/03 03:39:43;;;;;;;30.58;15.25;;;1.90;49.90;;;;;;4956994;28;20035;-73
2022/03/03 03:42:09;;;;;;;29.92;16.77;;;1.80;49.90;;;;;;4972290;28;20027;-73
2022/03/03 03:44:35;;;;;;;33.50;15.82;;;1.90;49.90;;;;;;4956635;28;20367;-72
2022/03/03 03:47:02;;;;;;;29.85;13.98;;;1.80;49.90;;;;;;4956662;28;20127;-74
2022/03/03 03:49:28;;;;;;;32.53;13.18;;;1.80;49.90;;;;;;4956332;28;20057;-72
2022/03/03 03:51:54;;;;;;;30.60;13.90;;;1.80;49.80;;;;;;4949411;28;20476;-75
2022/03/03 03:54:19;;;;;;;22.33;12.10;;;1.80;49.80;;;;;;4956659;28;20028;-72
2022/03/03 03:56:45;;;;;;;30.48;13.02;;;1.80;49.70;;;;;;4956465;28;20025;-74
2022/03/03 03:59:11;;;;;;;27.90;13.77;;;1.80;49.80;;;;;;4956749;28;20031;-72
2022/03/03 04:01:37;;;;;;;25.33;13.65;;;1.80;50.10;;;;;;4956636;28;20512;-74
2022/03/03 04:04:03;;;;;;;28.58;13.55;;;1.80;50.20;;;;;;4956392;28;20486;-71
2022/03/03 04:06:29;;;;;;;32.58;14.82;;;1.80;50.30;;;;;;4956600;28;20027;-73
2022/03/03 04:08:54;;;;;;;29.05;14.43;;;1.80;50.50;;;;;;4955995;28;20043;-75
2022/03/03 04:11:20;;;;;;;27.27;13.40;;;1.80;50.80;;;;;;4956181;28;20031;-74
2022/03/03 04:13:46;;;;;;;26.45;13.98;;;1.80;50.90;;;;;;4956447;28;20031;-71
2022/03/03 04:16:12;;;;;;;32.08;14.70;;;1.80;51.00;;;;;;4956102;28;20064;-72
2022/03/03 04:18:37;;;;;;;27.65;13.57;;;1.80;51.00;;;;;;4956298;28;20058;-74
2022/03/03 04:21:05;;;;;;;25.60;13.20;;;1.80;51.10;;;;;;4956304;28;20393;-74
2022/03/03 04:23:31;;;;;;;24.83;12.55;;;1.80;51.20;;;;;;4955600;28;20055;-74
2022/03/03 04:25:56;;;;;;;29.30;15.05;;;1.80;51.10;;;;;;4956176;28;20087;-72
2022/03/03 04:28:22;;;;;;;32.35;14.75;;;1.80;51.40;;;;;;4955928;28;20094;-73
2022/03/03 04:30:48;;;;;;;30.33;13.77;;;1.80;51.50;;;;;;4956113;28;20020;-74
2022/03/03 04:33:15;;;;;;;34.03;15.15;;;1.80;51.60;;;;;;4956076;28;20055;-75
2022/03/03 04:35:41;;;;;;;33.08;15.43;;;1.80;51.60;;;;;;4955740;28;20039;-72
2022/03/03 04:38:07;;;;;;;25.30;13.90;;;1.80;51.80;;;;;;4955900;28;20039;-74
2022/03/03 04:40:33;;;;;;;29.77;15.90;;;1.80;51.60;;;;;;4955304;28;20512;-72
2022/03/03 04:42:58;;;;;;;28.27;13.95;;;1.80;51.80;;;;;;4955318;28;20067;-75
2022/03/03 04:45:25;;;;;;;23.92;12.93;;;1.80;51.90;;;;;;4955632;28;20027;-71
2022/03/03 04:47:51;;;;;;;29.20;14.40;;;1.80;51.80;;;;;;4970336;28;20102;-73
2022/03/03 04:50:17;;;;;;;26.80;13.85;;;1.80;51.90;;;;;;4954787;28;20405;-74
2022/03/03 04:52:43;;;;;;;24.65;13.05;;;1.80;52.00;;;;;;4970498;28;20023;-72
2022/03/03 04:55:10;;;;;;;29.98;14.57;;;1.70;51.90;;;;;;4970404;28;20027;-74
2022/03/03 04:57:36;;;;;;;31.58;14.43;;;1.80;51.90;;;;;;4955332;28;20039;-74
2022/03/03 05:00:04;;;;;;;25.33;13.02;;;1.70;51.80;;;;;;4955093;28;20101;-72
2022/03/03 05:02:30;;;;;;;23.58;12.85;;;1.70;51.70;;;;;;4954773;28;20032;-72
2022/03/03 05:04:56;;;;;;;26.05;13.05;;;1.70;51.60;;;;;;4969834;28;20039;-72
2022/03/03 05:07:22;;;;;;;35.38;13.57;;;1.70;51.60;;;;;;4955496;28;20094;-71
2022/03/03 05:09:47;;;;;;;25.73;13.73;;;1.70;51.60;;;;;;4954617;28;20485;-72
2022/03/03 05:12:13;;;;;;;26.63;12.70;;;1.60;51.60;;;;;;4951154;28;20027;-72
2022/03/03 05:14:39;;;;;;;33.95;14.05;;;1.60;51.50;;;;;;4955267;28;20054;-72
2022/03/03 05:17:05;;;;;;;28.00;13.55;;;1.60;51.60;;;;;;4954537;28;20441;-70
2022/03/03 05:19:31;;;;;;;26.63;13.75;;;1.60;51.70;;;;;;4955185;28;20035;-72
2022/03/03 05:21:57;;;;;;;28.90;14.32;;;1.60;51.70;;;;;;4954623;28;20027;-71
2022/03/03 05:24:24;;;;;;;33.60;15.43;;;1.60;51.60;;;;;;4953455;28;20496;-72
2022/03/03 05:26:50;;;;;;;31.88;15.85;;;1.50;51.80;;;;;;4954990;28;20031;-73
2022/03/03 05:29:16;;;;;;;31.30;14.60;;;1.50;51.80;;;;;;4969983;28;20030;-73
2022/03/03 05:31:42;;;;;;;26.33;14.43;;;1.50;51.70;;;;;;4954118;28;20023;-74
2022/03/03 05:34:08;;;;;;;26.60;14.07;;;1.50;51.80;;;;;;4954486;28;20067;-72
2022/03/03 05:36:39;;;;;;;25.63;13.52;;;1.50;51.80;;;;;;4954613;28;20031;-72
2022/03/03 05:39:06;;;;;;;29.35;13.48;;;1.50;51.80;;;;;;4950343;28;20051;-71
2022/03/03 05:41:34;;;;;;;26.83;13.93;;;1.50;51.70;;;;;;4935649;29;20494;-73
2022/03/03 05:44:00;;;;;;;27.35;13.90;;;1.50;51.70;;;;;;4935601;29;20053;-73
2022/03/03 05:46:26;;;;;;;33.13;14.55;;;1.50;51.80;;;;;;4943362;28;20596;-74
2022/03/03 05:48:52;;;;;;;31.30;13.23;;;1.50;51.90;;;;;;4954799;28;20038;-74
2022/03/03 05:51:19;;;;;;;23.67;12.32;;;1.40;51.80;;;;;;4954534;28;20104;-72
2022/03/03 05:53:45;;;;;;;25.23;12.75;;;1.40;51.80;;;;;;4954109;28;20027;-72
2022/03/03 05:56:14;;;;;;;26.83;12.75;;;1.50;51.80;;;;;;4953531;28;20035;-74
2022/03/03 05:58:46;;;;;;;29.88;13.63;;;1.40;51.80;;;;;;4953067;28;20138;-71
2022/03/03 06:01:13;;;;;;;35.25;13.57;;;1.40;51.90;;;;;;4953302;28;20030;-75
2022/03/03 06:03:39;;;;;;;27.60;14.25;;;1.50;52.00;;;;;;4954104;28;20039;-74
2022/03/03 06:06:15;;;;;;;32.45;15.18;;;1.50;52.20;;;;;;4953435;28;20039;-71
2022/03/03 06:09:00;;;;;;;24.98;12.70;;;1.50;52.50;;;;;;4950789;28;20027;-71
2022/03/03 06:11:27;;;;;;;35.70;12.55;;;1.50;52.40;;;;;;4950031;28;20446;-72
2022/03/03 06:14:05;;;;;;;31.83;15.18;;;1.50;52.40;;;;;;4934150;29;20107;-72
2022/03/03 06:16:32;;;;;;;26.70;13.50;;;1.50;52.70;;;;;;4949429;28;20153;-73
2022/03/03 06:18:59;;;;;;;48.22;13.90;;;1.60;52.80;;;;;;4953991;28;20477;-72
2022/03/03 06:21:25;;;;;;;30.10;15.23;;;1.60;52.90;;;;;;4952897;28;20032;-71
2022/03/03 06:23:51;;;;;;;36.72;14.45;;;1.70;53.10;;;;;;4954030;28;20079;-74
2022/03/03 06:26:19;;;;;;;24.08;13.25;;;1.70;53.10;;;;;;4954366;28;20465;-73
2022/03/03 06:28:46;;;;;;;22.40;12.32;;;1.80;53.30;;;;;;4953916;28;20040;-73
2022/03/03 06:31:13;;;;;;;25.60;13.63;;;1.90;53.20;;;;;;4953917;28;20062;-71
2022/03/03 06:33:40;;;;;;;29.17;13.52;;;2.00;53.30;;;;;;4953105;28;20055;-72
2022/03/03 06:36:07;;;;;;;25.55;13.38;;;2.10;53.30;;;;;;4952982;28;20023;-73
2022/03/03 06:38:34;;;;;;;35.67;14.95;;;2.20;53.40;;;;;;4954205;28;20019;-73
2022/03/03 06:41:01;;;;;;;25.48;13.88;;;2.30;53.50;;;;;;4951041;28;20055;-74
2022/03/03 06:43:29;;;;;;;32.33;14.40;;;2.40;53.50;;;;;;4958015;28;20023;-73
2022/03/03 06:45:56;;;;;;;22.35;13.00;;;2.60;53.60;;;;;;4955139;28;20023;-71
2022/03/03 06:48:23;;;;;;;29.05;14.43;;;2.70;53.50;;;;;;4968900;28;20111;-73
2022/03/03 06:50:53;;;;;;;44.20;16.27;;;2.80;53.50;;;;;;4953737;28;20066;-72
2022/03/03 06:53:28;;;;;;;36.30;15.85;;;2.90;53.40;;;;;;4953851;28;20027;-73
2022/03/03 06:56:03;;;;;;;34.08;15.85;;;3.10;53.30;;;;;;4954152;28;20039;-71
2022/03/03 06:58:31;;;;;;;31.88;15.40;;;3.20;53.20;;;;;;4953783;28;20110;-75
2022/03/03 07:00:59;;;;;;;40.42;17.60;;;3.20;53.10;;;;;;4952719;28;20118;-71
2022/03/03 07:03:25;;;;;;;32.72;15.68;;;3.40;53.20;;;;;;4953445;28;20041;-75
2022/03/03 07:05:52;;;;;;;35.88;16.50;;;3.50;53.40;;;;;;4968488;28;20110;-75
2022/03/03 07:08:20;;;;;;;29.38;14.95;;;3.60;52.90;;;;;;4954020;28;20016;-71
2022/03/03 07:10:49;;;;;;;35.38;16.02;;;3.60;52.60;;;;;;4968280;28;20057;-71
2022/03/03 07:13:17;;;;;;;27.30;14.90;;;3.70;52.40;;;;;;4955336;28;20485;-72
2022/03/03 07:16:04;;;;;;;30.35;15.73;;;3.80;52.30;;;;;;4957451;28;20035;-72
2022/03/03 07:18:39;;;;;;;30.67;15.32;;;3.90;52.30;;;;;;4954481;28;20027;-74
2022/03/03 07:21:36;;;;;;;31.10;16.00;;;3.90;52.10;;;;;;4954606;28;20059;-72
2022/03/03 07:24:08;;;;;;;30.40;15.70;;;4.00;52.00;;;;;;4956742;28;20481;-73
2022/03/03 07:26:34;;;;;;;33.70;16.65;;;4.10;52.00;;;;;;4972055;28;20028;-73
2022/03/03 07:29:04;;;;;;;29.58;15.15;;;4.20;51.90;;;;;;4957100;28;20074;-73
2022/03/03 07:31:33;;;;;;;32.15;16.05;;;4.30;51.90;;;;;;4971527;28;20044;-73
2022/03/03 07:34:01;;;;;;;30.02;15.05;;;4.30;51.70;;;;;;4954970;28;20030;-72
2022/03/03 07:36:32;;;;;;;31.27;14.73;;;4.50;51.70;;;;;;4937908;29;20020;-73
2022/03/03 07:39:01;;;;;;;28.45;15.18;;;4.60;51.50;;;;;;4940235;28;20468;-72
2022/03/03 07:41:28;;;;;;;32.45;15.02;;;4.70;51.40;;;;;;4937747;29;20111;-73
2022/03/03 07:43:56;;;;;;;36.28;15.00;;;4.80;51.00;;;;;;4955035;28;20070;-72
2022/03/03 07:46:26;;;;;;;35.33;16.48;;;4.90;50.40;;;;;;4954950;28;20063;-75
2022/03/03 07:48:53;;;;;;;37.38;17.55;;;4.90;50.00;;;;;;4956845;28;20023;-75
2022/03/03 07:51:20;;;;;;;32.60;15.38;;;5.00;49.80;;;;;;4971286;28;20433;-74
2022/03/03 07:53:47;;;;;;;32.53;16.02;;;5.10;49.60;;;;;;4956124;28;20389;-75
2022/03/03 07:56:23;;;;;;;32.20;15.60;;;5.10;49.40;;;;;;4956130;28;20442;-74
2022/03/03 07:58:54;;;;;;;34.22;15.95;;;5.20;49.50;;;;;;4956302;28;20501;-72
2022/03/03 08:01:22;;;;;;;34.60;18.13;;;5.30;49.60;;;;;;4956421;28;20107;-73
2022/03/03 08:03:49;;;;;;;31.40;17.05;;;5.40;49.60;;;;;;4956191;28;20036;-74
2022/03/03 08:06:15;;;;;;;29.67;15.85;;;5.50;49.50;;;;;;4956455;28;20027;-75
2022/03/03 08:08:42;;;;;;;37.58;15.35;;;5.50;49.50;;;;;;4970947;28;20037;-74
2022/03/03 08:11:09;;;;;;;35.95;16.42;;;5.60;49.50;;;;;;4956480;28;20034;-74
2022/03/03 08:13:36;;;;;;;47.90;16.40;;;5.70;49.50;;;;;;4956446;28;20031;-73
2022/03/03 08:16:03;;;;;;;34.60;16.48;;;5.80;49.40;;;;;;4971185;28;20027;-74
2022/03/03 08:18:37;;;;;;;32.95;17.45;;;6.00;49.30;;;;;;4971095;28;20357;-75
2022/03/03 08:21:04;;;;;;;;;;;6.10;49.20;;;;;;4971189;28;20356;-73
2022/03/03 08:23:30;;;;;;;39.00;19.02;;;6.20;49.30;;;;;;4969897;28;19918;-71
2022/03/03 08:25:58;;;;;;;36.97;18.92;;;6.40;48.50;;;;;;4955760;28;20027;-72
2022/03/03 08:28:25;;;;;;;43.47;22.10;;;6.50;48.20;;;;;;4956270;28;20019;-73
2022/03/03 08:31:06;;;;;;;40.53;19.98;;;6.60;47.80;;;;;;4971246;28;20023;-72
2022/03/03 08:33:53;;;;;;;42.58;19.17;;;6.60;47.60;;;;;;4952025;28;20024;-73
2022/03/03 08:36:45;;;;;;;41.00;19.27;;;6.70;47.60;;;;;;4957279;28;20441;-72
2022/03/03 08:39:14;;;;;;;41.65;19.85;;;6.70;47.20;;;;;;4955982;28;20020;-75
2022/03/03 08:41:41;;;;;;;35.58;19.13;;;6.70;47.20;;;;;;4955903;28;20039;-74
2022/03/03 08:44:08;;;;;;;42.65;18.35;;;6.60;47.30;;;;;;4955870;28;20485;-74
2022/03/03 08:46:36;;;;;;;42.60;20.65;;;6.60;47.40;;;;;;4955919;28;20027;-73
2022/03/03 08:49:06;;;;;;;48.08;21.90;;;6.60;47.30;;;;;;4955767;28;20123;-73
2022/03/03 08:51:31;;;;;;;50.53;21.58;;;6.60;47.30;;;;;;4955600;28;20023;-74
2022/03/03 08:53:58;;;;;;;48.70;21.73;;;6.60;47.10;;;;;;4955386;28;20405;-72
2022/03/03 08:56:24;;;;;;;55.97;24.88;;;6.60;47.40;;;;;;4954124;28;20035;-74
2022/03/03 08:58:52;;;;;;;47.42;21.33;;;6.60;47.00;;;;;;4955046;28;20050;-72
2022/03/03 09:01:18;;;;;;;42.47;20.48;;;6.60;47.00;;;;;;4955529;28;20103;-73
2022/03/03 09:03:44;;;;;;;57.67;21.98;;;6.70;47.00;;;;;;4955129;28;20448;-73
2022/03/03 09:06:18;;;;;;;48.35;22.60;;;6.70;47.10;;;;;;4970074;28;20118;-74
2022/03/03 09:08:44;;;;;;;48.80;21.83;;;6.70;46.80;;;;;;4955505;28;20054;-73
2022/03/03 09:11:09;;;;;;;47.92;23.42;;;6.80;46.80;;;;;;4955360;28;20023;-70
2022/03/03 09:13:36;;;;;;;48.63;21.52;;;6.80;47.00;;;;;;4955363;28;20034;-73
2022/03/03 09:16:02;;;;;;;37.38;19.90;;;6.80;47.10;;;;;;4954981;28;20051;-71
2022/03/03 09:18:28;;;;;;;39.13;19.67;;;6.90;47.10;;;;;;4955263;28;20031;-72
2022/03/03 09:20:53;;;;;;;33.25;17.65;;;7.00;47.50;;;;;;4952293;28;20031;-73
2022/03/03 09:23:19;;;;;;;43.88;21.67;;;7.00;46.90;;;;;;4962403;28;20116;-71
2022/03/03 09:25:45;;;;;;;38.80;20.17;;;7.10;47.00;;;;;;4974435;28;20066;-73
2022/03/03 09:28:11;;;;;;;35.70;19.48;;;7.10;46.40;;;;;;4955084;28;20015;-71
2022/03/03 09:30:38;;;;;;;36.40;18.40;;;7.20;46.20;;;;;;4955119;28;20038;-71
2022/03/03 09:33:04;;;;;;;31.98;18.13;;;7.20;46.10;;;;;;4969900;28;20042;-76
2022/03/03 09:35:31;;;;;;;37.25;20.10;;;7.20;46.20;;;;;;4954296;28;20078;-75
2022/03/03 09:37:58;;;;;;;37.15;18.15;;;7.30;46.00;;;;;;4954776;28;20090;-74
2022/03/03 09:40:24;;;;;;;40.13;20.10;;;7.40;45.90;;;;;;4954310;28;20098;-74
2022/03/03 09:43:01;;;;;;;35.17;18.13;;;7.40;45.60;;;;;;4954590;28;20453;-72
2022/03/03 09:45:28;;;;;;;35.80;18.83;;;7.50;45.30;;;;;;4969361;28;20416;-71
2022/03/03 09:47:55;;;;;;;38.83;19.30;;;7.60;45.20;;;;;;4954035;28;20019;-73
2022/03/03 09:50:22;;;;;;;38.60;18.23;;;7.60;44.60;;;;;;4957155;28;20115;-74
2022/03/03 09:52:49;;;;;;;29.27;16.77;;;7.70;44.40;;;;;;4954440;28;20027;-73
2022/03/03 09:55:15;;;;;;;32.40;17.35;;;7.70;44.40;;;;;;4960109;28;20059;-74
2022/03/03 09:57:41;;;;;;;27.83;15.10;;;7.80;44.20;;;;;;4940659;28;20559;-71
2022/03/03 10:00:09;;;;;;;25.33;14.07;;;7.90;44.30;;;;;;4949269;28;20101;-72
2022/03/03 10:03:03;;;;;;;29.80;16.25;;;7.90;44.20;;;;;;4953886;28;20552;-72
2022/03/03 10:05:42;;;;;;;33.92;16.15;;;8.00;44.50;;;;;;4968986;28;20102;-72
2022/03/03 10:08:11;;;;;;;30.33;13.95;;;8.00;43.40;;;;;;4954011;28;20035;-71
2022/03/03 10:10:41;;;;;;;48.35;15.60;;;8.10;43.30;;;;;;4954284;28;20075;-72
2022/03/03 10:13:08;;;;;;;23.13;13.70;;;8.20;42.80;;;;;;4969072;28;20039;-74
2022/03/03 10:15:38;;;;;;;24.75;13.82;;;8.20;42.70;;;;;;4954253;28;20023;-73
2022/03/03 10:18:15;;;;;;;25.95;13.75;;;8.30;42.90;;;;;;4954141;28;20110;-73
2022/03/03 10:20:59;;;;;;;35.00;16.30;;;8.40;42.90;;;;;;4953192;28;20050;-71
2022/03/03 10:23:27;;;;;;;;;;;8.40;42.70;;;;;;4954191;28;20027;-72
2022/03/03 10:25:54;;;;;;;31.52;15.25;;;8.50;43.30;;;;;;4968945;28;19929;-75
2022/03/03 10:28:35;;;;;;;25.38;14.80;;;8.60;42.30;;;;;;4954113;28;20012;-75
2022/03/03 10:31:13;;;;;;;28.52;14.18;;;8.60;42.40;;;;;;4953401;28;20070;-70
2022/03/03 10:33:46;;;;;;;25.83;13.90;;;8.70;42.10;;;;;;4954339;28;20020;-74
2022/03/03 10:36:16;;;;;;;23.83;12.38;;;8.80;41.80;;;;;;4953057;28;20456;-73
2022/03/03 10:39:03;;;;;;;23.85;13.68;;;8.80;41.80;;;;;;4954234;28;20019;-76
2022/03/03 10:41:36;;;;;;;23.38;13.05;;;8.90;41.60;;;;;;4952885;28;20027;-76
2022/03/03 10:44:05;;;;;;;25.50;14.10;;;8.90;41.70;;;;;;4935053;29;20101;-77
2022/03/03 10:46:32;;;;;;;34.67;15.45;;;9.00;41.80;;;;;;4948431;28;20112;-75
2022/03/03 10:48:58;;;;;;;26.65;13.32;;;9.00;41.70;;;;;;4957710;28;20141;-75
2022/03/03 10:51:25;;;;;;;36.40;14.27;;;9.10;41.40;;;;;;4957946;28;20015;-76
2022/03/03 10:53:55;;;;;;;30.42;15.38;;;9.20;41.30;;;;;;4957820;28;20019;-75
2022/03/03 10:56:21;;;;;;;29.55;14.82;;;9.20;40.80;;;;;;4957896;28;20035;-77
2022/03/03 10:58:52;;;;;;;26.92;13.10;;;9.20;40.50;;;;;;4957480;28;20062;-75
2022/03/03 11:01:29;;;;;;;25.45;12.85;;;9.30;40.90;;;;;;4957323;28;20102;-74
2022/03/03 11:03:55;;;;;;;26.65;13.25;;;9.40;40.90;;;;;;4957724;28;20033;-74
2022/03/03 11:06:28;;;;;;;32.67;14.40;;;9.50;40.70;;;;;;4957774;28;20082;-74
2022/03/03 11:08:55;;;;;;;28.98;14.50;;;9.50;40.60;;;;;;4957693;28;20027;-73
2022/03/03 11:11:22;;;;;;;25.88;13.93;;;9.60;40.70;;;;;;4957847;28;20047;-74
2022/03/03 11:13:49;;;;;;;29.33;13.35;;;9.70;41.10;;;;;;4959188;28;20058;-77
2022/03/03 11:16:17;;;;;;;29.27;15.02;;;9.70;40.50;;;;;;4959474;28;20074;-76
2022/03/03 11:18:44;;;;;;;27.20;15.20;;;9.80;40.10;;;;;;4960114;28;20035;-75
2022/03/03 11:21:12;;;;;;;30.20;14.95;;;9.80;40.10;;;;;;4959918;28;20095;-75
2022/03/03 11:23:43;;;;;;;41.03;15.15;;;9.80;39.80;;;;;;4958524;28;20110;-73
2022/03/03 11:26:20;;;;;;;25.15;14.25;;;9.90;39.70;;;;;;4956136;28;20051;-74
2022/03/03 11:28:57;;;;;;;23.52;13.40;;;10.00;39.80;;;;;;4957456;28;20015;-74
2022/03/03 11:31:26;;;;;;;28.67;13.43;;;10.00;39.00;;;;;;4957309;28;20012;-76
2022/03/03 11:34:23;;;;;;;31.15;13.77;;;10.10;38.40;;;;;;4957239;28;20031;-75
2022/03/03 11:37:15;;;;;;;29.80;14.93;;;10.10;38.50;;;;;;4971993;28;20126;-76
2022/03/03 11:39:53;;;;;;;28.80;14.48;;;10.20;38.60;;;;;;4957276;28;20074;-74
2022/03/03 11:42:23;;;;;;;30.10;14.32;;;10.20;38.20;;;;;;4957340;28;20031;-77
2022/03/03 11:44:59;;;;;;;31.48;14.38;;;10.30;36.40;;;;;;4957461;28;20572;-74
2022/03/03 11:47:31;;;;;;;28.17;14.63;;;10.30;36.00;;;;;;4957069;28;20027;-75
2022/03/03 11:50:12;;;;;;;30.88;15.38;;;10.30;35.80;;;;;;4971905;28;20496;-73
2022/03/03 11:52:40;;;;;;;30.65;15.98;;;10.40;36.10;;;;;;4956871;28;20059;-76
2022/03/03 11:55:27;;;;;;;23.77;14.05;;;10.50;36.20;;;;;;4971696;28;20023;-73
2022/03/03 11:58:07;;;;;;;24.70;13.55;;;10.50;35.30;;;;;;4956045;28;20052;-74
2022/03/03 12:00:38;;;;;;;31.85;13.85;;;10.60;35.90;;;;;;4956915;28;20035;-74
2022/03/03 12:03:06;;;;;;;26.80;13.88;;;10.60;35.20;;;;;;4956601;28;20066;-73
2022/03/03 12:05:40;;;;;;;30.63;14.35;;;10.70;34.70;;;;;;4956610;28;20107;-76
2022/03/03 12:08:27;;;;;;;27.48;15.07;;;10.70;34.40;;;;;;4956682;28;20110;-74
2022/03/03 12:11:04;;;;;;;23.63;13.50;;;10.80;34.30;;;;;;4956592;28;20025;-75
2022/03/03 12:13:32;;;;;;;28.33;14.30;;;10.80;33.70;;;;;;4956443;28;20023;-74
2022/03/03 12:16:35;;;;;;;28.33;14.38;;;10.90;34.00;;;;;;4956502;28;20420;-74
2022/03/03 12:19:02;;;;;;;23.95;13.25;;;11.00;33.70;;;;;;4956428;28;20481;-74
2022/03/03 12:21:45;;;;;;;31.08;14.15;;;11.10;33.60;;;;;;4956359;28;20035;-76
2022/03/03 12:24:14;;;;;;;25.13;13.60;;;11.20;33.40;;;;;;4956182;28;20038;-76
2022/03/03 12:26:55;;;;;;;22.23;12.38;;;11.30;32.50;;;;;;4971109;28;20023;-74
2022/03/03 12:29:39;;;;;;;24.23;12.57;;;11.50;32.00;;;;;;4971044;28;20389;-76
2022/03/03 12:32:29;;;;;;;24.83;12.73;;;11.70;31.70;;;;;;4956167;28;20027;-74
2022/03/03 12:35:24;;;;;;;27.88;12.80;;;11.90;31.70;;;;;;4956078;28;20114;-74
2022/03/03 12:37:50;;;;;;;25.27;12.70;;;12.10;31.30;;;;;;4956086;28;20019;-73
2022/03/03 12:40:18;;;;;;;28.10;12.73;;;12.30;31.20;;;;;;4954669;28;20273;-77
2022/03/03 12:42:45;;;;;;;26.25;13.13;;;12.50;30.00;;;;;;4955971;28;20528;-76
2022/03/03 12:45:15;;;;;;;22.02;12.90;;;12.60;29.70;;;;;;4955918;28;20027;-75